createdAt,value
2018-09-04T00:00:45.470Z,47.27
2018-09-04T00:03:20.132Z,47.60
2018-09-04T00:05:56.789Z,44.10
2018-09-04T00:08:31.341Z,48.97
2018-09-04T00:11:05.936Z,49.13
2018-09-04T00:13:40.741Z,48.97
2018-09-04T00:16:15.565Z,49.37
2018-09-04T00:18:50.104Z,47.00
2018-09-04T00:21:25.217Z,49.73
2018-09-04T00:24:00.565Z,45.80
2018-09-04T00:26:35.317Z,47.13
2018-09-04T00:29:10.216Z,47.80
2018-09-04T00:31:44.833Z,53.70
2018-09-04T00:34:19.509Z,52.63
2018-09-04T00:36:54.269Z,50.73
2018-09-04T00:39:28.759Z,52.50
2018-09-04T00:42:03.421Z,53.23
2018-09-04T00:44:38.012Z,54.80
2018-09-04T00:47:12.480Z,55.20
2018-09-04T00:49:47.324Z,56.33
2018-09-04T00:52:21.988Z,56.60
2018-09-04T00:54:56.612Z,55.20
2018-09-04T00:57:31.256Z,55.90
2018-09-04T01:00:06.358Z,54.60
2018-09-04T01:02:40.748Z,55.63
2018-09-04T01:05:15.357Z,54.33
2018-09-04T01:07:50.018Z,58.20
2018-09-04T01:10:24.596Z,56.03
2018-09-04T01:12:59.261Z,56.90
2018-09-04T01:15:33.947Z,56.97
2018-09-04T01:18:08.982Z,58.10
2018-09-04T01:20:49.858Z,56.73
2018-09-04T01:23:46.893Z,59.93
2018-09-04T01:26:21.655Z,54.23
2018-09-04T01:28:57.784Z,55.67
2018-09-04T01:31:32.472Z,58.40
2018-09-04T01:34:07.318Z,58.63
2018-09-04T01:36:41.896Z,62.40
2018-09-04T01:39:16.518Z,57.93
2018-09-04T01:41:51.145Z,60.40
2018-09-04T01:44:25.675Z,60.77
2018-09-04T01:47:00.209Z,59.67
2018-09-04T01:49:35.745Z,58.20
2018-09-04T01:52:17.227Z,57.93
2018-09-04T01:54:51.980Z,58.50
2018-09-04T01:57:26.608Z,57.50
2018-09-04T02:00:01.186Z,59.77
2018-09-04T02:02:35.708Z,55.67
2018-09-04T02:05:10.313Z,58.27
2018-09-04T02:07:44.912Z,61.13
2018-09-04T02:10:19.753Z,61.10
2018-09-04T02:12:54.267Z,59.80
2018-09-04T02:15:29.352Z,59.10
2018-09-04T02:18:03.965Z,59.90
2018-09-04T02:20:38.429Z,61.70
2018-09-04T02:23:12.943Z,60.00
2018-09-04T02:25:47.723Z,57.60
2018-09-04T02:28:22.256Z,56.83
2018-09-04T02:30:56.807Z,56.70
2018-09-04T02:33:31.436Z,54.70
2018-09-04T02:36:06.283Z,58.90
2018-09-04T02:38:41.057Z,62.03
2018-09-04T02:41:15.580Z,56.20
2018-09-04T02:43:50.096Z,54.73
2018-09-04T02:46:24.716Z,56.40
2018-09-04T02:48:59.370Z,59.13
2018-09-04T02:51:33.812Z,55.27
2018-09-04T02:54:08.353Z,55.40
2018-09-04T02:56:43.053Z,54.10
2018-09-04T02:59:17.581Z,55.63
2018-09-04T03:01:52.209Z,55.03
2018-09-04T03:04:40.071Z,55.10
2018-09-04T03:07:14.617Z,55.97
2018-09-04T03:09:49.304Z,55.53
2018-09-04T03:12:24.061Z,51.57
2018-09-04T03:14:58.997Z,50.17
2018-09-04T03:17:33.635Z,55.17
2018-09-04T03:20:08.192Z,58.20
2018-09-04T03:25:21.211Z,59.87
2018-09-04T03:27:55.542Z,59.60
2018-09-04T03:30:30.867Z,55.10
2018-09-04T03:33:05.501Z,54.97
2018-09-04T03:35:39.801Z,55.07
2018-09-04T03:38:14.296Z,57.77
2018-09-04T03:40:48.674Z,58.27
2018-09-04T03:43:23.107Z,56.13
2018-09-04T03:45:57.536Z,57.23
2018-09-04T03:48:32.058Z,57.10
2018-09-04T03:51:08.572Z,59.90
2018-09-04T03:53:43.160Z,55.60
2018-09-04T03:56:17.755Z,58.73
2018-09-04T03:58:52.098Z,58.00
2018-09-04T04:01:26.658Z,63.73
2018-09-04T04:04:01.263Z,64.13
2018-09-04T04:06:35.529Z,64.20
2018-09-04T04:09:11.016Z,60.70
2018-09-04T04:11:52.756Z,66.13
2018-09-04T04:14:27.134Z,67.27
2018-09-04T04:17:20.099Z,58.73
2018-09-04T04:19:54.766Z,59.80
2018-09-04T04:22:29.156Z,61.47
2018-09-04T04:25:03.906Z,57.67
2018-09-04T04:27:39.247Z,64.87
2018-09-04T04:30:13.744Z,63.07
2018-09-04T04:32:48.100Z,60.83
2018-09-04T04:35:22.585Z,70.13
2018-09-04T04:37:57.119Z,68.83
2018-09-04T04:40:31.685Z,59.93
2018-09-04T04:43:06.377Z,59.53
2018-09-04T04:45:41.676Z,61.57
2018-09-04T04:48:16.422Z,59.60
2018-09-04T04:50:51.037Z,58.97
2018-09-04T04:53:25.817Z,57.93
2018-09-04T04:56:00.740Z,67.53
2018-09-04T04:58:35.444Z,67.43
2018-09-04T05:01:10.069Z,64.60
2018-09-04T05:06:44.322Z,61.27
2018-09-04T05:18:21.134Z,60.43
2018-09-04T05:20:56.527Z,63.20
2018-09-04T05:23:31.094Z,61.40
2018-09-04T05:26:05.761Z,59.60
2018-09-04T05:28:40.497Z,58.60
2018-09-04T05:31:15.352Z,55.40
2018-09-04T05:33:50.080Z,57.77
2018-09-04T05:36:25.820Z,52.43
2018-09-04T05:39:17.182Z,54.87
2018-09-04T05:42:01.531Z,55.00
2018-09-04T05:44:38.080Z,55.00
2018-09-04T05:47:12.693Z,56.00
2018-09-04T05:49:47.296Z,55.60
2018-09-04T05:52:22.028Z,56.57
2018-09-04T05:55:06.057Z,58.50
2018-09-04T06:03:50.758Z,48.27
2018-09-04T06:06:25.478Z,47.47
2018-09-04T06:09:00.406Z,42.97
2018-09-04T06:11:35.192Z,43.97
2018-09-04T06:14:11.901Z,41.23
2018-09-04T06:16:46.568Z,42.87
2018-09-04T06:19:22.604Z,42.00
2018-09-04T06:22:03.862Z,41.30
2018-09-04T06:24:38.744Z,38.70
2018-09-04T06:27:36.523Z,39.07
2018-09-04T06:30:16.413Z,39.93
2018-09-04T06:33:09.275Z,39.87
2018-09-04T06:35:43.768Z,43.57
2018-09-04T06:38:18.249Z,39.57
2018-09-04T06:40:52.715Z,40.73
2018-09-04T06:43:50.992Z,39.03
2018-09-04T06:46:25.681Z,37.33
2018-09-04T06:49:00.197Z,37.37
2018-09-04T06:51:34.842Z,35.93
2018-09-04T06:54:09.544Z,36.00
2018-09-04T06:56:44.186Z,35.73
2018-09-04T06:59:18.676Z,36.87
2018-09-04T07:01:53.317Z,35.03
2018-09-04T07:04:27.968Z,37.00
2018-09-04T07:07:02.633Z,35.27
2018-09-04T07:09:37.289Z,37.27
2018-09-04T07:12:11.888Z,36.00
2018-09-04T07:14:46.457Z,35.83
2018-09-04T07:17:21.030Z,32.30
2018-09-04T07:19:55.660Z,32.30
2018-09-04T07:22:30.327Z,31.80
2018-09-04T07:25:04.717Z,32.87
2018-09-04T07:27:39.203Z,33.03
2018-09-04T07:30:13.792Z,33.90
2018-09-04T07:32:48.430Z,34.27
2018-09-04T07:35:23.225Z,33.80
2018-09-04T07:37:57.909Z,33.43
2018-09-04T07:40:32.483Z,33.97
2018-09-04T07:43:07.149Z,32.73
2018-09-04T07:45:41.830Z,33.50
2018-09-04T07:48:16.354Z,34.07
2018-09-04T07:50:50.772Z,33.93
2018-09-04T07:53:25.270Z,33.47
2018-09-04T07:56:00.213Z,33.43
2018-09-04T07:58:34.792Z,34.40
2018-09-04T08:01:09.383Z,33.47
2018-09-04T08:03:43.932Z,35.40
2018-09-04T08:06:18.594Z,35.97
2018-09-04T08:08:53.597Z,35.63
2018-09-04T08:11:28.062Z,37.47
2018-09-04T08:14:02.855Z,40.13
2018-09-04T08:16:37.638Z,39.03
2018-09-04T08:19:12.145Z,38.63
2018-09-04T08:21:46.820Z,38.33
2018-09-04T08:24:31.833Z,35.97
2018-09-04T08:27:06.569Z,36.40
2018-09-04T08:29:41.723Z,34.90
2018-09-04T08:32:16.438Z,35.43
2018-09-04T08:34:50.994Z,32.60
2018-09-04T08:37:25.752Z,34.47
2018-09-04T08:40:00.923Z,35.00
2018-09-04T08:42:35.459Z,33.70
2018-09-04T08:45:12.223Z,32.90
2018-09-04T08:47:47.008Z,34.23
2018-09-04T08:50:21.461Z,34.13
2018-09-04T08:52:56.164Z,35.73
2018-09-04T08:55:43.493Z,35.83
2018-09-04T08:58:19.260Z,33.77
2018-09-04T09:03:52.823Z,33.50
2018-09-04T09:06:32.128Z,33.47
2018-09-04T09:09:08.009Z,33.20
2018-09-04T09:11:42.547Z,32.67
2018-09-04T09:14:33.177Z,35.70
2018-09-04T09:17:07.820Z,32.80
2018-09-04T09:19:42.356Z,32.10
2018-09-04T09:22:17.962Z,34.27
2018-09-04T09:24:52.737Z,33.33
2018-09-04T09:27:27.980Z,33.07
2018-09-04T09:30:03.225Z,30.10
2018-09-04T09:32:39.001Z,29.40
2018-09-04T09:35:14.853Z,31.00
2018-09-04T09:37:49.689Z,29.07
2018-09-04T09:40:24.385Z,27.80
2018-09-04T09:43:06.602Z,29.00
2018-09-04T09:45:41.202Z,27.30
2018-09-04T09:48:16.044Z,28.13
2018-09-04T09:50:50.784Z,27.73
2018-09-04T09:53:26.823Z,27.80
2018-09-04T09:56:01.170Z,24.73
2018-09-04T09:58:52.429Z,26.63
2018-09-04T10:01:31.058Z,25.77
2018-09-04T10:04:07.175Z,26.90
2018-09-04T10:07:04.277Z,24.27
2018-09-04T10:09:38.842Z,26.50
2018-09-04T10:15:12.853Z,25.07
2018-09-04T10:17:48.805Z,25.63
2018-09-04T10:20:37.081Z,26.30
2018-09-04T10:23:12.295Z,25.17
2018-09-04T10:25:47.338Z,25.77
2018-09-04T10:28:22.408Z,25.10
2018-09-04T10:30:57.086Z,23.80
2018-09-04T10:33:45.285Z,25.90
2018-09-04T10:36:19.964Z,22.17
2018-09-04T10:38:59.867Z,23.30
2018-09-04T10:41:34.545Z,25.03
2018-09-04T10:44:09.392Z,26.33
2018-09-04T10:46:44.066Z,24.87
2018-09-04T10:49:19.223Z,25.47
2018-09-04T10:51:53.780Z,24.20
2018-09-04T10:54:33.909Z,26.30
2018-09-04T10:57:08.568Z,25.70
2018-09-04T10:59:43.268Z,21.60
2018-09-04T11:02:18.935Z,22.10
2018-09-04T11:04:53.555Z,23.77
2018-09-04T11:07:28.069Z,22.77
2018-09-04T11:10:02.991Z,21.47
2018-09-04T11:12:37.295Z,23.73
2018-09-04T11:15:11.846Z,22.60
2018-09-04T11:17:46.367Z,21.20
2018-09-04T11:20:21.334Z,22.20
2018-09-04T11:22:56.067Z,20.07
2018-09-04T11:25:30.824Z,17.30
2018-09-04T11:28:05.816Z,18.97
2018-09-04T11:30:40.377Z,17.53
2018-09-04T11:33:14.808Z,18.80
2018-09-04T11:35:49.428Z,17.33
2018-09-04T11:38:24.320Z,17.00
2018-09-04T11:40:58.968Z,15.40
2018-09-04T11:43:36.471Z,16.13
2018-09-04T11:46:11.128Z,17.17
2018-09-04T11:48:45.785Z,17.07
2018-09-04T11:51:21.123Z,19.30
2018-09-04T11:53:55.832Z,16.60
2018-09-04T11:56:30.309Z,17.03
2018-09-04T11:59:05.157Z,17.83
2018-09-04T12:01:43.151Z,18.93
2018-09-04T12:04:17.612Z,18.80
2018-09-04T12:10:08.116Z,20.13
2018-09-04T12:12:42.564Z,19.60
2018-09-04T12:15:16.984Z,20.67
2018-09-04T12:17:51.545Z,19.27
2018-09-04T12:23:39.228Z,21.33
2018-09-04T12:26:15.253Z,20.10
2018-09-04T12:28:49.944Z,21.77
2018-09-04T12:31:24.380Z,20.00
2018-09-04T12:33:59.480Z,19.80
2018-09-04T12:36:34.611Z,18.63
2018-09-04T12:39:09.861Z,19.93
2018-09-04T12:41:44.396Z,19.47
2018-09-04T12:44:19.146Z,18.83
2018-09-04T12:46:55.028Z,20.80
2018-09-04T12:49:41.018Z,19.90
2018-09-04T12:52:15.661Z,19.97
2018-09-04T12:54:50.868Z,18.20
2018-09-04T12:57:25.460Z,17.50
2018-09-04T13:00:00.100Z,18.00
2018-09-04T13:02:34.708Z,17.97
2018-09-04T13:05:09.335Z,17.47
2018-09-04T13:07:43.849Z,18.10
2018-09-04T13:10:18.420Z,18.67
2018-09-04T13:12:53.041Z,18.67
2018-09-04T13:15:28.103Z,18.20
2018-09-04T13:18:02.698Z,18.33
2018-09-04T13:20:37.249Z,18.90
2018-09-04T13:23:11.701Z,18.43
2018-09-04T13:25:46.359Z,18.10
2018-09-04T13:28:20.898Z,17.83
2018-09-04T13:31:07.704Z,16.73
2018-09-04T13:33:43.419Z,18.47
2018-09-04T13:36:18.052Z,17.10
2018-09-04T13:38:52.557Z,16.97
2018-09-04T13:41:31.184Z,16.63
2018-09-04T13:44:08.976Z,17.57
2018-09-04T13:49:58.845Z,17.37
2018-09-04T13:52:33.796Z,18.77
2018-09-04T13:55:23.122Z,18.43
2018-09-04T13:57:57.717Z,18.50
2018-09-04T14:00:32.421Z,17.73
2018-09-04T14:03:13.794Z,17.73
2018-09-04T14:05:48.502Z,17.97
2018-09-04T14:08:23.219Z,18.77
2018-09-04T14:10:58.229Z,20.73
2018-09-04T14:13:35.940Z,24.07
2018-09-04T14:16:14.280Z,26.40
2018-09-04T14:18:48.929Z,26.63
2018-09-04T14:21:23.446Z,26.00
2018-09-04T14:23:58.001Z,29.20
2018-09-04T14:26:32.696Z,29.10
2018-09-04T14:29:07.395Z,30.40
2018-09-04T14:31:42.030Z,29.63
2018-09-04T14:34:16.657Z,32.17
2018-09-04T14:36:51.329Z,31.50
2018-09-04T14:39:25.802Z,31.10
2018-09-04T14:42:00.334Z,31.83
2018-09-04T14:44:34.896Z,33.53
2018-09-04T14:47:09.549Z,29.80
2018-09-04T14:49:44.124Z,20.20
2018-09-04T14:52:18.783Z,20.17
2018-09-04T14:54:53.451Z,20.87
2018-09-04T14:57:27.911Z,20.50
2018-09-04T15:00:02.473Z,25.50
2018-09-04T15:02:37.118Z,26.63
2018-09-04T15:05:11.555Z,20.87
2018-09-04T15:07:46.290Z,21.60
2018-09-04T15:10:20.916Z,22.90
2018-09-04T15:12:55.447Z,23.10
2018-09-04T15:15:30.100Z,24.97
2018-09-04T15:18:04.740Z,24.70
2018-09-04T15:20:39.687Z,26.43
2018-09-04T15:23:14.271Z,25.20
2018-09-04T15:25:48.885Z,27.57
2018-09-04T15:28:23.656Z,27.60
2018-09-04T15:30:58.345Z,25.30
2018-09-04T15:33:33.211Z,27.43
2018-09-04T15:36:07.973Z,25.70
2018-09-04T15:38:42.696Z,26.03
2018-09-04T15:41:17.578Z,26.07
2018-09-04T15:43:52.078Z,27.20
2018-09-04T15:46:27.948Z,27.23
2018-09-04T15:52:02.074Z,28.00
2018-09-04T15:54:36.700Z,29.07
2018-09-04T15:57:11.323Z,26.20
2018-09-04T16:02:55.248Z,25.33
2018-09-04T16:05:29.925Z,23.90
2018-09-04T16:08:04.480Z,21.80
2018-09-04T16:10:39.214Z,22.13
2018-09-04T16:13:13.685Z,21.23
2018-09-04T16:15:48.177Z,23.37
2018-09-04T16:18:22.937Z,23.33
2018-09-04T16:20:57.589Z,25.10
2018-09-04T16:23:32.075Z,18.90
2018-09-04T16:26:06.740Z,22.37
2018-09-04T16:28:41.512Z,19.87
2018-09-04T16:31:16.371Z,21.83
2018-09-04T16:33:51.087Z,24.27
2018-09-04T16:36:25.752Z,25.70
2018-09-04T16:39:00.463Z,26.33
2018-09-04T16:41:35.173Z,28.00
2018-09-04T16:44:28.000Z,28.97
2018-09-04T16:47:02.592Z,27.80
2018-09-04T16:49:37.201Z,30.57
2018-09-04T16:52:11.861Z,29.70
2018-09-04T16:54:46.410Z,31.63
2018-09-04T16:57:20.961Z,29.93
2018-09-04T16:59:55.572Z,31.00
2018-09-04T17:02:30.393Z,30.87
2018-09-04T17:05:05.017Z,30.03
2018-09-04T17:07:39.480Z,31.23
2018-09-04T17:10:14.151Z,31.03
2018-09-04T17:12:48.906Z,31.47
2018-09-04T17:15:23.404Z,31.20
2018-09-04T17:17:58.024Z,31.53
2018-09-04T17:20:33.046Z,31.07
2018-09-04T17:23:07.949Z,31.10
2018-09-04T17:25:42.692Z,31.83
2018-09-04T17:28:17.365Z,31.20
2018-09-04T17:30:52.050Z,31.60
2018-09-04T17:33:26.753Z,30.53
2018-09-04T17:36:01.344Z,33.00
2018-09-04T17:38:35.780Z,29.77
2018-09-04T17:41:10.476Z,31.70
2018-09-04T17:43:44.947Z,30.50
2018-09-04T17:46:19.517Z,30.60
2018-09-04T17:48:54.141Z,33.37
2018-09-04T17:51:28.632Z,31.80
2018-09-04T17:54:03.328Z,31.13
2018-09-04T17:56:37.954Z,31.00
2018-09-04T17:59:12.502Z,27.67
2018-09-04T18:01:47.129Z,25.37
2018-09-04T18:04:21.701Z,25.07
2018-09-04T18:06:56.320Z,24.97
2018-09-04T18:09:31.268Z,25.83
2018-09-04T18:12:05.886Z,25.80
2018-09-04T18:14:40.916Z,25.80
2018-09-04T18:17:15.458Z,26.23
2018-09-04T18:22:48.300Z,25.07
2018-09-04T18:25:22.903Z,26.43
2018-09-04T18:27:57.659Z,27.27
2018-09-04T18:30:32.700Z,28.63
2018-09-04T18:33:07.244Z,25.47
2018-09-04T18:35:41.754Z,27.13
2018-09-04T18:38:16.228Z,28.17
2018-09-04T18:40:50.847Z,27.10
2018-09-04T18:43:25.418Z,23.67
2018-09-04T18:45:59.925Z,26.10
2018-09-04T18:48:34.531Z,25.47
2018-09-04T18:51:09.224Z,27.70
2018-09-04T18:53:43.696Z,26.60
2018-09-04T18:56:18.448Z,27.47
2018-09-04T18:58:53.058Z,27.70
2018-09-04T19:01:27.640Z,27.83
2018-09-04T19:04:02.328Z,28.30
2018-09-04T19:06:37.001Z,30.73
2018-09-04T19:09:11.707Z,28.60
2018-09-04T19:11:46.790Z,27.03
2018-09-04T19:14:21.439Z,28.80
2018-09-04T19:16:56.883Z,28.63
2018-09-04T19:19:31.877Z,27.37
2018-09-04T19:22:07.828Z,27.50
2018-09-04T19:24:42.566Z,27.53
2018-09-04T19:27:17.265Z,27.67
2018-09-04T19:29:51.886Z,28.13
2018-09-04T19:32:26.508Z,28.63
2018-09-04T19:35:01.104Z,28.47
2018-09-04T19:37:35.931Z,26.83
2018-09-04T19:40:10.746Z,27.10
2018-09-04T19:42:45.319Z,29.37
2018-09-04T19:45:21.628Z,29.07
2018-09-04T19:50:55.288Z,29.60
2018-09-04T19:53:30.159Z,30.00
2018-09-04T19:56:05.273Z,29.93
2018-09-04T19:58:39.984Z,29.33
2018-09-04T20:01:14.561Z,30.50
2018-09-04T20:03:49.080Z,32.67
2018-09-04T20:06:24.007Z,27.80
2018-09-04T20:08:58.568Z,25.20
2018-09-04T20:11:33.507Z,26.40
2018-09-04T20:14:08.093Z,25.80
2018-09-04T20:16:42.660Z,26.87
2018-09-04T20:19:17.332Z,27.77
2018-09-04T20:21:51.900Z,28.47
2018-09-04T20:24:26.532Z,28.33
2018-09-04T20:27:01.389Z,30.17
2018-09-04T20:29:36.281Z,29.30
2018-09-04T20:32:10.844Z,28.77
2018-09-04T20:34:45.408Z,27.83
2018-09-04T20:37:20.088Z,27.73
2018-09-04T20:39:55.041Z,29.23
2018-09-04T20:42:29.543Z,29.23
2018-09-04T20:45:04.133Z,27.83
2018-09-04T20:47:38.693Z,28.20
2018-09-04T20:50:13.399Z,29.57
2018-09-04T20:52:48.030Z,28.63
2018-09-04T20:55:22.589Z,28.90
2018-09-04T20:58:09.508Z,28.47
2018-09-04T21:00:55.448Z,28.73
2018-09-04T21:03:41.399Z,32.27
2018-09-04T21:06:27.345Z,29.57
2018-09-04T21:09:08.379Z,27.13
2018-09-04T21:11:44.026Z,26.30
2018-09-04T21:14:22.694Z,26.40
2018-09-04T21:16:57.468Z,28.40
2018-09-04T21:19:32.515Z,27.03
2018-09-04T21:22:07.850Z,28.37
2018-09-04T21:24:42.432Z,27.63
2018-09-04T21:27:18.745Z,29.27
2018-09-04T21:29:53.464Z,28.90
2018-09-04T21:32:28.202Z,27.27
2018-09-04T21:35:02.786Z,28.10
2018-09-04T21:37:37.387Z,28.40
2018-09-04T21:40:12.493Z,27.43
2018-09-04T21:42:47.173Z,28.43
2018-09-04T21:45:21.888Z,27.30
2018-09-04T21:47:56.999Z,27.77
2018-09-04T21:50:31.416Z,27.50
2018-09-04T21:53:06.100Z,29.87
2018-09-04T21:55:40.868Z,28.20
2018-09-04T21:58:15.613Z,28.40
2018-09-04T22:00:50.376Z,28.77
2018-09-04T22:03:24.970Z,29.27
2018-09-04T22:05:59.537Z,29.93
2018-09-04T22:08:34.109Z,33.00
2018-09-04T22:11:08.669Z,33.67
2018-09-04T22:13:43.627Z,33.03
2018-09-04T22:16:18.076Z,35.30
2018-09-04T22:18:52.795Z,34.13
2018-09-04T22:21:27.455Z,33.73
2018-09-04T22:24:02.367Z,32.83
2018-09-04T22:26:36.836Z,32.90
2018-09-04T22:29:11.597Z,33.63
2018-09-04T22:31:46.185Z,34.43
2018-09-04T22:34:39.374Z,34.30
2018-09-04T22:37:14.265Z,34.87
2018-09-04T22:39:48.712Z,33.23
2018-09-04T22:42:23.128Z,31.47
2018-09-04T22:44:57.844Z,33.07
2018-09-04T22:47:32.526Z,34.23
2018-09-04T22:50:12.287Z,31.60
2018-09-04T22:52:46.974Z,32.70
2018-09-04T22:55:21.493Z,32.37
2018-09-04T22:57:56.010Z,32.07
2018-09-04T23:00:37.535Z,31.03
2018-09-04T23:03:12.296Z,31.67
2018-09-04T23:05:46.727Z,30.80
2018-09-04T23:08:21.261Z,29.63
2018-09-04T23:10:55.880Z,29.07
2018-09-04T23:13:30.305Z,29.30
2018-09-04T23:16:04.816Z,28.10
2018-09-04T23:18:39.267Z,29.07
2018-09-04T23:24:23.590Z,25.73
2018-09-04T23:26:58.290Z,25.80
2018-09-04T23:32:46.198Z,27.67
2018-09-04T23:35:20.887Z,26.83
2018-09-04T23:37:55.875Z,29.57
2018-09-04T23:40:30.373Z,28.63
2018-09-04T23:43:05.438Z,29.00
2018-09-04T23:45:39.941Z,29.70
2018-09-04T23:48:14.761Z,31.13
2018-09-04T23:50:49.436Z,30.07
2018-09-04T23:53:24.043Z,32.10
2018-09-04T23:56:02.220Z,31.63
2018-09-04T23:58:36.821Z,30.40
